createdAt,value
2019-01-23T00:00:39.007Z,13.80
2019-01-23T00:05:40.553Z,13.17
2019-01-23T00:10:41.954Z,13.20
2019-01-23T00:15:43.520Z,13.50
2019-01-23T00:20:44.861Z,12.70
2019-01-23T00:25:47.360Z,13.70
2019-01-23T00:30:48.974Z,13.40
2019-01-23T00:35:50.299Z,14.47
2019-01-23T00:40:51.784Z,14.07
2019-01-23T00:45:53.143Z,15.83
2019-01-23T00:50:55.675Z,15.93
2019-01-23T00:55:57.276Z,14.10
2019-01-23T01:00:58.855Z,14.87
2019-01-23T01:06:00.291Z,14.93
2019-01-23T01:11:01.696Z,14.10
2019-01-23T01:16:03.280Z,13.87
2019-01-23T01:21:04.716Z,13.87
2019-01-23T01:26:06.103Z,14.70
2019-01-23T01:31:07.643Z,13.67
2019-01-23T01:36:08.989Z,14.47
2019-01-23T01:41:10.368Z,13.67
2019-01-23T01:46:11.851Z,14.37
2019-01-23T01:51:13.266Z,13.37
2019-01-23T01:56:14.768Z,13.50
2019-01-23T02:01:16.197Z,12.87
2019-01-23T02:06:17.547Z,13.07
2019-01-23T02:11:18.964Z,12.90
2019-01-23T02:16:20.451Z,12.57
2019-01-23T02:21:21.794Z,11.97
2019-01-23T02:26:23.193Z,13.33
2019-01-23T02:31:26.106Z,14.40
2019-01-23T02:36:27.429Z,12.83
2019-01-23T02:41:28.814Z,12.97
2019-01-23T02:46:30.148Z,11.70
2019-01-23T02:51:31.536Z,12.67
2019-01-23T02:56:32.907Z,12.50
2019-01-23T03:01:34.238Z,12.27
2019-01-23T03:06:35.591Z,11.77
2019-01-23T03:11:36.969Z,12.03
2019-01-23T03:16:38.368Z,11.57
2019-01-23T03:21:39.695Z,11.97
2019-01-23T03:26:41.098Z,11.53
2019-01-23T03:31:42.477Z,11.87
2019-01-23T03:36:43.827Z,10.87
2019-01-23T03:41:45.252Z,11.20
2019-01-23T03:46:46.764Z,12.13
2019-01-23T03:51:48.135Z,12.07
2019-01-23T03:56:49.577Z,10.07
2019-01-23T04:01:50.937Z,11.03
2019-01-23T04:06:52.287Z,10.37
2019-01-23T04:11:53.637Z,11.43
2019-01-23T04:16:55.050Z,11.87
2019-01-23T04:21:56.698Z,12.57
2019-01-23T04:26:58.067Z,13.90
2019-01-23T04:31:59.439Z,14.03
2019-01-23T04:37:00.786Z,14.37
2019-01-23T04:42:02.279Z,14.73
2019-01-23T04:47:03.736Z,15.13
2019-01-23T04:52:09.691Z,14.97
2019-01-23T04:57:11.055Z,14.40
2019-01-23T05:02:12.437Z,15.37
2019-01-23T05:07:13.869Z,14.67
2019-01-23T05:12:15.231Z,15.07
2019-01-23T05:17:16.630Z,14.17
2019-01-23T05:22:17.976Z,15.07
2019-01-23T05:27:19.322Z,13.67
2019-01-23T05:32:20.755Z,13.37
2019-01-23T05:37:22.096Z,14.40
2019-01-23T05:42:23.550Z,14.53
2019-01-23T05:47:24.914Z,13.30
2019-01-23T05:52:26.375Z,13.53
2019-01-23T05:57:27.714Z,13.73
2019-01-23T06:02:29.115Z,13.90
2019-01-23T06:07:30.435Z,14.10
2019-01-23T06:12:32.849Z,15.53
2019-01-23T06:17:34.238Z,14.23
2019-01-23T06:22:35.697Z,13.87
2019-01-23T06:27:37.157Z,14.13
2019-01-23T06:32:38.595Z,15.37
2019-01-23T06:37:40.060Z,14.57
2019-01-23T06:42:41.557Z,16.00
2019-01-23T06:47:43.369Z,16.60
2019-01-23T06:52:44.887Z,17.27
2019-01-23T06:57:46.363Z,17.00
2019-01-23T07:02:47.998Z,15.67
2019-01-23T07:07:49.378Z,16.83
2019-01-23T07:12:50.845Z,15.47
2019-01-23T07:17:52.324Z,15.67
2019-01-23T07:22:53.696Z,16.37
2019-01-23T07:27:55.261Z,15.63
2019-01-23T07:32:56.731Z,16.10
2019-01-23T07:37:58.268Z,16.03
2019-01-23T07:42:59.697Z,15.23
2019-01-23T07:48:01.099Z,15.30
2019-01-23T07:53:02.701Z,15.33
2019-01-23T07:58:04.030Z,16.07
2019-01-23T08:03:05.417Z,17.43
2019-01-23T08:08:06.869Z,14.87
2019-01-23T08:13:08.260Z,15.80
2019-01-23T08:18:09.628Z,16.37
2019-01-23T08:23:11.075Z,16.67
2019-01-23T08:28:12.568Z,17.20
2019-01-23T08:33:13.915Z,16.40
2019-01-23T08:38:15.263Z,16.90
2019-01-23T08:43:16.745Z,17.27
2019-01-23T08:48:18.099Z,17.40
2019-01-23T08:53:19.477Z,16.77
2019-01-23T08:58:20.906Z,16.90
2019-01-23T09:03:22.325Z,17.17
2019-01-23T09:08:23.644Z,18.10
2019-01-23T09:13:25.046Z,18.23
2019-01-23T09:18:26.473Z,18.20
2019-01-23T09:23:27.847Z,17.63
2019-01-23T09:28:29.233Z,17.93
2019-01-23T09:33:44.854Z,18.20
2019-01-23T09:39:25.625Z,17.30
2019-01-23T09:45:21.859Z,18.73
2019-01-23T09:50:31.709Z,18.80
2019-01-23T09:55:33.059Z,19.37
2019-01-23T10:00:34.439Z,19.10
2019-01-23T10:05:35.821Z,20.07
2019-01-23T10:10:37.153Z,19.87
2019-01-23T10:15:44.049Z,19.67
2019-01-23T10:20:45.454Z,19.77
2019-01-23T10:25:46.989Z,18.63
2019-01-23T10:30:48.408Z,18.87
2019-01-23T10:35:49.922Z,18.33
2019-01-23T10:40:51.329Z,19.10
2019-01-23T10:45:52.871Z,19.47
2019-01-23T10:50:54.230Z,18.73
2019-01-23T10:55:55.574Z,20.50
2019-01-23T11:00:57.063Z,21.37
2019-01-23T11:05:58.608Z,20.40
2019-01-23T11:11:00.018Z,21.13
2019-01-23T11:16:01.463Z,21.40
2019-01-23T11:21:03.337Z,21.93
2019-01-23T11:26:05.079Z,22.30
2019-01-23T11:31:06.469Z,21.93
2019-01-23T11:36:07.835Z,21.97
2019-01-23T11:41:09.277Z,21.60
2019-01-23T11:46:10.663Z,23.53
2019-01-23T11:51:12.143Z,22.83
2019-01-23T11:56:13.593Z,23.80
2019-01-23T12:01:14.976Z,25.00
2019-01-23T12:06:16.506Z,25.13
2019-01-23T12:11:17.934Z,25.03
2019-01-23T12:16:19.434Z,25.13
2019-01-23T12:21:20.855Z,26.03
2019-01-23T12:26:22.331Z,27.03
2019-01-23T12:31:23.783Z,27.53
2019-01-23T12:36:25.233Z,27.27
2019-01-23T12:41:26.601Z,28.03
2019-01-23T12:46:27.940Z,28.47
2019-01-23T12:51:29.986Z,28.43
2019-01-23T12:56:32.533Z,28.10
2019-01-23T13:01:33.906Z,26.63
2019-01-23T13:06:36.287Z,27.67
2019-01-23T13:11:37.816Z,30.17
2019-01-23T13:16:39.213Z,29.40
2019-01-23T13:21:40.568Z,28.03
2019-01-23T13:26:41.986Z,29.27
2019-01-23T13:31:49.108Z,30.07
2019-01-23T13:36:46.718Z,29.83
2019-01-23T13:41:48.383Z,30.50
2019-01-23T13:46:49.831Z,31.80
2019-01-23T13:51:51.223Z,30.53
2019-01-23T13:56:52.585Z,30.60
2019-01-23T14:01:56.464Z,30.53
2019-01-23T14:06:57.262Z,30.37
2019-01-23T14:11:58.641Z,28.87
2019-01-23T14:17:00.082Z,29.17
2019-01-23T14:22:01.559Z,30.27
2019-01-23T14:27:03.039Z,29.77
2019-01-23T14:32:04.494Z,30.50
2019-01-23T14:37:06.067Z,30.07
2019-01-23T14:42:07.494Z,29.33
2019-01-23T14:47:08.951Z,28.30
2019-01-23T14:52:10.528Z,29.50
2019-01-23T14:57:11.898Z,28.37
2019-01-23T15:02:13.261Z,29.37
2019-01-23T15:07:14.640Z,29.37
2019-01-23T15:12:16.023Z,29.10
2019-01-23T15:17:17.487Z,31.27
2019-01-23T15:22:18.918Z,30.97
2019-01-23T15:27:20.343Z,29.30
2019-01-23T15:32:21.797Z,30.20
2019-01-23T15:37:23.215Z,31.20
2019-01-23T15:42:24.592Z,30.63
2019-01-23T15:47:25.978Z,31.07
2019-01-23T15:52:27.319Z,31.10
2019-01-23T15:57:28.728Z,28.97
2019-01-23T16:02:30.141Z,30.97
2019-01-23T16:07:31.547Z,31.57
2019-01-23T16:12:33.003Z,30.03
2019-01-23T16:17:34.431Z,31.97
2019-01-23T16:22:35.914Z,29.33
2019-01-23T16:27:37.296Z,31.83
2019-01-23T16:32:38.642Z,31.27
2019-01-23T16:37:40.220Z,31.87
2019-01-23T16:42:43.986Z,32.83
2019-01-23T16:47:45.797Z,31.77
2019-01-23T16:52:48.411Z,32.80
2019-01-23T16:57:50.798Z,31.30
2019-01-23T17:02:53.370Z,33.93
2019-01-23T17:07:56.275Z,32.37
2019-01-23T17:12:57.855Z,33.07
2019-01-23T17:17:59.333Z,32.73
2019-01-23T17:23:00.774Z,32.67
2019-01-23T17:28:04.464Z,34.23
2019-01-23T17:33:05.983Z,33.80
2019-01-23T17:38:07.310Z,35.20
2019-01-23T17:43:09.616Z,34.90
2019-01-23T17:48:11.708Z,35.03
2019-01-23T17:53:13.047Z,34.57
2019-01-23T17:58:14.745Z,34.63
2019-01-23T18:03:17.535Z,33.73
2019-01-23T18:08:19.464Z,34.80
2019-01-23T18:13:21.282Z,34.57
2019-01-23T18:18:22.626Z,33.57
2019-01-23T18:23:24.202Z,35.07
2019-01-23T18:28:25.562Z,34.70
2019-01-23T18:33:38.450Z,36.00
2019-01-23T18:39:04.235Z,36.67
2019-01-23T18:44:38.931Z,36.50
2019-01-23T18:49:49.108Z,38.07
2019-01-23T18:54:50.584Z,36.90
2019-01-23T18:59:58.979Z,35.67
2019-01-23T19:04:55.424Z,36.47
2019-01-23T19:09:56.754Z,35.33
2019-01-23T19:14:58.239Z,37.20
2019-01-23T19:19:59.698Z,35.50
2019-01-23T19:25:01.191Z,35.80
2019-01-23T19:30:13.719Z,35.30
2019-01-23T19:35:15.484Z,36.50
2019-01-23T19:40:18.087Z,34.53
2019-01-23T19:45:20.560Z,34.63
2019-01-23T19:50:21.935Z,32.33
2019-01-23T19:55:23.263Z,36.30
2019-01-23T20:00:24.820Z,35.90
2019-01-23T20:05:26.295Z,36.87
2019-01-23T20:10:27.812Z,35.47
2019-01-23T20:15:29.355Z,35.60
2019-01-23T20:20:30.845Z,33.33
2019-01-23T20:25:32.531Z,33.97
2019-01-23T20:30:36.271Z,35.93
2019-01-23T20:35:37.658Z,32.93
2019-01-23T20:40:39.187Z,33.40
2019-01-23T20:45:40.692Z,34.43
2019-01-23T20:50:42.106Z,34.67
2019-01-23T20:55:43.911Z,33.60
2019-01-23T21:00:45.519Z,33.30
2019-01-23T21:05:46.980Z,33.53
2019-01-23T21:10:48.375Z,33.93
2019-01-23T21:15:49.797Z,33.00
2019-01-23T21:20:51.195Z,32.77
2019-01-23T21:25:52.568Z,32.47
2019-01-23T21:30:53.889Z,31.43
2019-01-23T21:35:55.298Z,32.97
2019-01-23T21:40:56.748Z,31.90
2019-01-23T21:45:58.114Z,30.53
2019-01-23T21:50:59.441Z,30.13
2019-01-23T21:56:00.855Z,31.47
2019-01-23T22:01:02.924Z,31.13
2019-01-23T22:06:04.391Z,32.23
2019-01-23T22:11:05.753Z,30.73
2019-01-23T22:16:07.190Z,29.80
2019-01-23T22:21:08.659Z,30.43
2019-01-23T22:26:10.047Z,31.30
2019-01-23T22:31:11.383Z,29.40
2019-01-23T22:36:12.759Z,28.57
2019-01-23T22:41:14.144Z,27.43
2019-01-23T22:46:15.701Z,29.40
2019-01-23T22:51:17.039Z,29.20
2019-01-23T22:56:18.546Z,30.17
2019-01-23T23:01:21.116Z,30.23
2019-01-23T23:06:22.498Z,30.77
2019-01-23T23:11:24.036Z,31.67
2019-01-23T23:16:25.422Z,31.93
2019-01-23T23:21:26.754Z,32.53
2019-01-23T23:26:28.139Z,30.60
2019-01-23T23:31:29.530Z,31.90
2019-01-23T23:36:30.977Z,31.80
2019-01-23T23:41:32.357Z,31.50
2019-01-23T23:46:33.788Z,30.03
2019-01-23T23:51:35.214Z,31.00
2019-01-23T23:56:36.614Z,30.97
